Time;durP1;ratioP1;P1;durP2;ratioP2;P2;SDS_P1;SDS_P2;PMS_P1;PMS_P2;Temp;Humidity;BMP_temperature;BMP_pressure;BME280_temperature;BME280_humidity;BME280_pressure;Samples;Min_cycle;Max_cycle;Signal;HPM_P1;HPM_P2
2022/12/30 00:01:43;;;;;;;;;;;7.90;99.90;;;;;;5016194;28;19909;-68
2022/12/30 00:04:09;;;;;;;;;;;7.90;99.90;;;;;;4998749;28;19913;-71
2022/12/30 00:06:34;;;;;;;;;;;7.90;99.90;;;;;;5013573;28;19917;-71
2022/12/30 00:09:00;;;;;;;;;;;7.70;99.90;;;;;;5016066;28;19959;-69
2022/12/30 00:11:28;;;;;;;;;;;7.60;99.90;;;;;;5015921;28;19938;-82
2022/12/30 00:33:40;;;;;;;;;;;7.10;99.90;;;;;;5014904;28;19916;-87
2022/12/30 00:36:06;;;;;;;;;;;7.10;99.90;;;;;;5001136;28;19909;-87
2022/12/30 00:38:31;;;;;;;;;;;6.90;99.90;;;;;;5015339;28;19909;-87
2022/12/30 00:43:41;;;;;;;;;;;6.80;99.90;;;;;;5013565;28;20383;-84
2022/12/30 00:46:07;;;;;;;;;;;7.10;99.90;;;;;;5012328;28;20003;-87
2022/12/30 00:56:46;;;;;;;;;;;6.70;99.90;;;;;;5013955;28;20008;-70
2022/12/30 00:59:12;;;;;;;;;;;6.90;99.90;;;;;;5014911;28;20332;-76
2022/12/30 01:01:37;;;;;;;;;;;6.80;99.90;;;;;;5015431;28;19913;-87
2022/12/30 01:04:03;;;;;;;;;;;6.80;99.90;;;;;;5015159;28;19910;-86
2022/12/30 01:06:29;;;;;;;;;;;6.80;99.90;;;;;;5014777;28;19921;-85
2022/12/30 01:08:54;;;;;;;;;;;6.80;99.90;;;;;;5014494;28;20040;-88
2022/12/30 01:11:20;;;;;;;;;;;6.80;99.90;;;;;;5013117;28;19909;-87
2022/12/30 01:13:49;;;;;;;;;;;6.90;99.90;;;;;;5010424;28;19914;-75
2022/12/30 01:16:16;;;;;;;;;;;6.80;99.90;;;;;;4996699;28;19909;-77
2022/12/30 01:18:42;;;;;;;;;;;6.60;99.90;;;;;;5013079;28;19972;-80
2022/12/30 01:21:08;;;;;;;;;;;6.70;99.90;;;;;;5013518;28;19909;-75
2022/12/30 01:23:34;;;;;;;;;;;6.80;99.90;;;;;;5014182;28;19909;-86
2022/12/30 01:26:01;;;;;;;;;;;6.80;99.90;;;;;;5014630;28;19909;-83
2022/12/30 01:28:30;;;;;;;;;;;6.80;99.90;;;;;;5014681;28;19909;-85
2022/12/30 01:30:56;;;;;;;;;;;6.80;99.90;;;;;;5011718;28;19914;-85
2022/12/30 01:33:22;;;;;;;;;;;6.70;99.90;;;;;;5014503;28;19983;-88
2022/12/30 01:35:47;;;;;;;;;;;6.80;99.90;;;;;;5014383;28;20372;-74
2022/12/30 01:38:15;;;;;;;;;;;6.70;99.90;;;;;;5014234;28;19909;-87
2022/12/30 01:40:41;;;;;;;;;;;6.70;99.90;;;;;;5012766;28;19917;-88
2022/12/30 01:43:13;;;;;;;;;;;6.70;99.90;;;;;;5014130;28;19909;-79
2022/12/30 01:45:40;;;;;;;;;;;6.70;99.90;;;;;;5012001;28;20397;-87
2022/12/30 01:48:12;;;;;;;;;;;6.70;99.90;;;;;;5014303;28;19909;-87
2022/12/30 01:50:49;;;;;;;;;;;6.70;99.90;;;;;;5011751;28;19920;-84
2022/12/30 01:53:15;;;;;;;;;;;6.80;99.90;;;;;;5010375;28;19913;-87
2022/12/30 01:56:00;;;;;;;;;;;6.80;99.90;;;;;;4994348;28;19940;-83
2022/12/30 01:58:33;;;;;;;;;;;6.70;99.90;;;;;;5010457;28;20336;-87
2022/12/30 02:00:58;;;;;;;;;;;6.70;99.90;;;;;;4994095;28;19918;-83
2022/12/30 02:03:27;;;;;;;;;;;6.70;99.90;;;;;;4995965;28;19916;-86
2022/12/30 02:05:53;;;;;;;;;;;6.60;99.90;;;;;;5013764;28;20423;-87
2022/12/30 02:08:20;;;;;;;;;;;6.60;99.90;;;;;;5013529;28;19921;-87
2022/12/30 02:10:47;;;;;;;;;;;6.40;99.90;;;;;;5012713;28;19954;-87
2022/12/30 02:13:14;;;;;;;;;;;6.30;99.90;;;;;;5011470;28;19910;-87
2022/12/30 02:16:03;;;;;;;;;;;6.40;99.90;;;;;;5013051;28;19917;-86
2022/12/30 02:18:34;;;;;;;;;;;6.30;99.90;;;;;;5012051;28;19910;-71
2022/12/30 02:21:09;;;;;;;;;;;6.10;99.90;;;;;;5011570;28;20008;-86
2022/12/30 02:23:44;;;;;;;;;;;6.00;99.90;;;;;;4995675;28;19913;-86
2022/12/30 02:26:10;;;;;;;;;;;6.10;99.90;;;;;;5013308;28;20044;-86
2022/12/30 02:28:54;;;;;;;;;;;6.10;99.90;;;;;;5010684;28;19984;-71
2022/12/30 02:31:33;;;;;;;;;;;6.30;99.90;;;;;;5011323;28;19913;-87
2022/12/30 02:34:18;;;;;;;;;;;6.40;99.90;;;;;;5011271;28;19928;-86
2022/12/30 02:37:02;;;;;;;;;;;6.30;99.90;;;;;;5011322;28;19917;-87
2022/12/30 02:39:33;;;;;;;;;;;6.20;99.90;;;;;;5010829;28;20011;-73
2022/12/30 02:45:12;;;;;;;;;;;5.80;99.90;;;;;;5007065;28;20399;-87
2022/12/30 02:47:40;;;;;;;;;;;5.80;99.90;;;;;;5012915;28;19909;-87
2022/12/30 02:52:53;;;;;;;;;;;5.80;99.90;;;;;;5012731;28;19917;-87
2022/12/30 02:55:19;;;;;;;;;;;5.80;99.90;;;;;;5013145;28;19913;-87
2022/12/30 02:57:45;;;;;;;;;;;5.80;99.90;;;;;;5013158;28;19917;-69
2022/12/30 03:06:17;;;;;;;;;;;6.20;99.90;;;;;;5010736;28;19920;-87
2022/12/30 03:08:48;;;;;;;;;;;6.20;99.90;;;;;;5011711;28;19999;-87
2022/12/30 03:11:16;;;;;;;;;;;6.10;99.90;;;;;;4995137;28;20334;-75
2022/12/30 03:13:48;;;;;;;;;;;5.80;99.90;;;;;;5011041;28;19909;-87
2022/12/30 03:16:19;;;;;;;;;;;5.70;99.90;;;;;;5012793;28;19913;-87
2022/12/30 03:18:46;;;;;;;;;;;5.70;99.90;;;;;;5012806;28;19917;-87
2022/12/30 03:21:11;;;;;;;;;;;5.50;99.90;;;;;;5012464;28;19927;-86
2022/12/30 03:29:13;;;;;;;;;;;5.80;99.90;;;;;;5014047;28;20411;-87
2022/12/30 03:31:39;;;;;;;;;;;5.70;99.90;;;;;;5013504;28;19909;-71
2022/12/30 03:34:04;;;;;;;;;;;5.90;99.90;;;;;;5014343;28;20008;-87
2022/12/30 03:36:33;;;;;;;;;;;6.00;99.90;;;;;;5013980;28;19988;-70
2022/12/30 03:39:02;;;;;;;;;;;6.10;99.90;;;;;;5013940;28;19913;-78
2022/12/30 03:41:28;;;;;;;;;;;6.10;99.90;;;;;;5014063;28;19925;-87
2022/12/30 03:43:55;;;;;;;;;;;6.00;99.90;;;;;;5012635;28;19917;-87
2022/12/30 03:46:25;;;;;;;;;;;5.80;99.90;;;;;;4996506;28;19909;-86
2022/12/30 03:48:50;;;;;;;;;;;5.60;99.90;;;;;;4997363;28;20357;-80
2022/12/30 03:51:16;;;;;;;;;;;5.60;99.90;;;;;;5005313;28;19909;-87
2022/12/30 03:53:41;;;;;;;;;;;5.80;99.90;;;;;;5013895;28;20352;-87
2022/12/30 03:56:07;;;;;;;;;;;5.70;99.90;;;;;;5013824;28;19909;-87
2022/12/30 03:58:32;;;;;;;;;;;5.60;99.90;;;;;;5013571;28;19948;-87
2022/12/30 04:00:58;;;;;;;;;;;5.50;99.90;;;;;;5014031;28;19917;-70
2022/12/30 04:03:24;;;;;;;;;;;5.50;99.90;;;;;;5013430;28;20004;-87
2022/12/30 04:05:53;;;;;;;;;;;5.60;99.90;;;;;;4996314;28;19917;-87
2022/12/30 04:08:19;;;;;;;;;;;;;;;;;;5012397;28;19913;-80
2022/12/30 04:10:45;;;;;;;;;;;5.50;99.90;;;;;;5012272;28;19964;-83
2022/12/30 04:13:10;;;;;;;;;;;5.60;99.90;;;;;;4994389;28;19916;-79
2022/12/30 04:15:36;;;;;;;;;;;5.70;99.90;;;;;;5012436;28;19909;-85
2022/12/30 04:18:01;;;;;;;;;;;5.70;99.90;;;;;;5011263;28;19909;-86
2022/12/30 04:20:27;;;;;;;;;;;5.80;99.90;;;;;;5008060;28;19917;-72
2022/12/30 04:22:55;;;;;;;;;;;5.70;99.90;;;;;;5011249;28;19910;-86
2022/12/30 04:25:21;;;;;;;;;;;5.80;99.90;;;;;;4998358;28;19917;-86
2022/12/30 04:27:47;;;;;;;;;;;5.50;99.90;;;;;;5017596;28;19914;-86
2022/12/30 04:30:12;;;;;;;;;;;5.30;99.90;;;;;;5017356;28;19909;-72
2022/12/30 04:32:38;;;;;;;;;;;5.20;99.90;;;;;;4999081;28;19909;-87
2022/12/30 04:35:04;;;;;;;;;;;5.00;99.90;;;;;;5017307;28;19917;-87
2022/12/30 04:37:29;;;;;;;;;;;5.20;99.90;;;;;;5016949;28;20415;-86
2022/12/30 04:39:55;;;;;;;;;;;5.50;99.90;;;;;;5017138;28;20361;-87
2022/12/30 04:42:21;;;;;;;;;;;5.60;99.90;;;;;;5017043;28;19996;-86
2022/12/30 04:44:46;;;;;;;;;;;5.70;99.90;;;;;;5016615;28;19910;-86
2022/12/30 04:47:12;;;;;;;;;;;5.80;99.90;;;;;;4999340;28;19957;-80
2022/12/30 04:49:37;;;;;;;;;;;5.30;99.90;;;;;;5016802;28;19920;-83
2022/12/30 04:52:03;;;;;;;;;;;5.00;99.90;;;;;;4999181;28;20349;-87
2022/12/30 04:54:28;;;;;;;;;;;4.90;99.90;;;;;;4999680;28;19913;-87
2022/12/30 04:56:54;;;;;;;;;;;5.00;99.90;;;;;;4999003;28;19948;-87
2022/12/30 04:59:20;;;;;;;;;;;5.20;99.90;;;;;;5016643;28;19917;-86
2022/12/30 05:01:45;;;;;;;;;;;5.30;99.90;;;;;;4999242;28;19963;-87
2022/12/30 05:04:11;;;;;;;;;;;5.40;99.90;;;;;;5016710;28;19909;-87
2022/12/30 05:06:37;;;;;;;;;;;5.50;99.90;;;;;;5016202;28;19990;-87
2022/12/30 05:09:02;;;;;;;;;;;5.30;99.90;;;;;;5016596;28;19913;-87
2022/12/30 05:11:28;;;;;;;;;;;5.30;99.90;;;;;;5016497;28;19917;-86
2022/12/30 05:13:53;;;;;;;;;;;5.50;99.90;;;;;;5016569;28;19914;-87
2022/12/30 05:16:19;;;;;;;;;;;5.60;99.90;;;;;;5013253;28;19953;-86
2022/12/30 05:18:44;;;;;;;;;;;5.70;99.90;;;;;;5014574;28;19914;-87
2022/12/30 05:21:10;;;;;;;;;;;5.60;99.90;;;;;;5015763;28;19913;-87
2022/12/30 05:26:20;;;;;;;;;;;5.20;99.90;;;;;;5016181;28;19971;-86
2022/12/30 05:28:47;;;;;;;;;;;5.20;99.90;;;;;;5015812;28;19960;-87
2022/12/30 05:31:13;;;;;;;;;;;5.20;99.90;;;;;;5015134;28;19909;-78
2022/12/30 05:33:39;;;;;;;;;;;5.20;99.90;;;;;;4997249;28;19975;-87
2022/12/30 05:36:05;;;;;;;;;;;5.20;99.90;;;;;;5016127;28;20550;-88
2022/12/30 05:38:30;;;;;;;;;;;5.10;99.90;;;;;;4997835;28;19909;-87
2022/12/30 05:40:56;;;;;;;;;;;5.20;99.90;;;;;;5015723;28;19920;-87
2022/12/30 05:43:22;;;;;;;;;;;5.30;99.90;;;;;;5014415;28;20371;-87
2022/12/30 05:45:47;;;;;;;;;;;5.30;99.90;;;;;;4998171;28;19913;-87
2022/12/30 05:48:13;;;;;;;;;;;5.20;99.90;;;;;;4998221;28;20320;-86
2022/12/30 05:50:39;;;;;;;;;;;5.20;99.90;;;;;;5015418;28;19909;-87
2022/12/30 05:53:05;;;;;;;;;;;5.10;99.90;;;;;;5015729;28;19910;-87
2022/12/30 05:55:30;;;;;;;;;;;5.10;99.90;;;;;;5014306;28;20364;-69
2022/12/30 05:57:56;;;;;;;;;;;5.10;99.90;;;;;;5012212;28;19909;-86
2022/12/30 06:00:21;;;;;;;;;;;5.10;99.90;;;;;;4996201;28;19917;-87
2022/12/30 06:02:47;;;;;;;;;;;5.00;99.90;;;;;;5015174;28;19913;-87
2022/12/30 06:05:13;;;;;;;;;;;5.00;99.90;;;;;;5015647;28;20312;-87
2022/12/30 06:07:38;;;;;;;;;;;5.10;99.90;;;;;;5015510;28;19917;-87
2022/12/30 06:10:04;;;;;;;;;;;5.30;99.90;;;;;;5014948;28;19916;-87
2022/12/30 06:12:30;;;;;;;;;;;5.40;99.90;;;;;;5015064;28;19909;-86
2022/12/30 06:14:55;;;;;;;;;;;5.50;99.90;;;;;;5015367;28;19915;-87
2022/12/30 06:17:21;;;;;;;;;;;5.60;99.90;;;;;;5014679;28;19909;-87
2022/12/30 06:19:46;;;;;;;;;;;5.60;99.90;;;;;;5015241;28;19917;-86
2022/12/30 06:22:12;;;;;;;;;;;5.60;99.90;;;;;;4997443;28;20307;-86
2022/12/30 06:24:37;;;;;;;;;;;5.50;99.90;;;;;;5015260;28;19909;-87
2022/12/30 06:27:03;;;;;;;;;;;5.50;99.90;;;;;;5015103;28;19910;-86
2022/12/30 06:29:29;;;;;;;;;;;5.60;99.90;;;;;;4997470;28;19940;-86
2022/12/30 06:31:54;;;;;;;;;;;5.50;99.90;;;;;;5014678;28;19913;-87
2022/12/30 06:34:20;;;;;;;;;;;5.60;99.90;;;;;;4997620;28;19910;-85
2022/12/30 06:36:46;;;;;;;;;;;5.60;99.90;;;;;;4997650;28;19916;-86
2022/12/30 06:39:11;;;;;;;;;;;5.60;99.90;;;;;;4997318;28;19917;-86
2022/12/30 06:41:37;;;;;;;;;;;5.60;99.90;;;;;;5014640;28;20028;-86
2022/12/30 06:44:02;;;;;;;;;;;5.60;99.90;;;;;;5014489;28;19910;-85
2022/12/30 06:46:28;;;;;;;;;;;5.50;99.90;;;;;;5014562;28;20007;-86
2022/12/30 06:48:54;;;;;;;;;;;5.20;99.90;;;;;;4996765;28;20345;-86
2022/12/30 06:51:19;;;;;;;;;;;5.20;99.90;;;;;;5014543;28;19992;-86
2022/12/30 06:53:45;;;;;;;;;;;5.20;99.90;;;;;;5014527;28;19916;-86
2022/12/30 06:56:10;;;;;;;;;;;5.20;99.90;;;;;;4997036;28;19956;-87
2022/12/30 06:58:36;;;;;;;;;;;5.30;99.90;;;;;;4996762;28;19910;-86
2022/12/30 07:01:02;;;;;;;;;;;5.30;99.90;;;;;;5014237;28;20353;-86
2022/12/30 07:03:27;;;;;;;;;;;5.40;99.90;;;;;;5010871;28;20012;-86
2022/12/30 07:05:53;;;;;;;;;;;5.40;99.90;;;;;;5013089;28;19916;-86
2022/12/30 07:08:19;;;;;;;;;;;5.50;99.90;;;;;;4996467;28;19956;-86
2022/12/30 07:10:44;;;;;;;;;;;5.50;99.90;;;;;;5014294;28;19963;-86
2022/12/30 07:13:12;;;;;;;;;;;5.50;99.90;;;;;;5011447;28;20333;-87
2022/12/30 07:15:37;;;;;;;;;;;5.40;99.90;;;;;;5010609;28;19913;-70
2022/12/30 07:18:03;;;;;;;;;;;5.40;99.90;;;;;;4993858;28;19913;-87
2022/12/30 07:20:29;;;;;;;;;;;5.40;99.90;;;;;;5014166;28;20382;-87
2022/12/30 07:22:54;;;;;;;;;;;5.40;99.90;;;;;;5014169;28;20269;-86
2022/12/30 07:25:20;;;;;;;;;;;5.30;99.90;;;;;;5014450;28;19916;-86
2022/12/30 07:27:45;;;;;;;;;;;5.30;99.90;;;;;;5014299;28;20280;-87
2022/12/30 07:30:11;;;;;;;;;;;5.30;99.90;;;;;;4996626;28;19910;-70
2022/12/30 07:32:37;;;;;;;;;;;5.30;99.90;;;;;;5014266;28;19910;-82
2022/12/30 07:35:07;;;;;;;;;;;5.40;99.90;;;;;;5013955;28;19909;-86
2022/12/30 07:37:33;;;;;;;;;;;;;;;;;;5014465;28;19916;-85
2022/12/30 07:39:58;;;;;;;;;;;5.50;99.90;;;;;;5014384;28;19917;-69
2022/12/30 07:42:24;;;;;;;;;;;5.70;99.90;;;;;;5014182;28;20437;-83
2022/12/30 07:44:49;;;;;;;;;;;5.70;99.90;;;;;;5015211;28;19909;-82
2022/12/30 07:47:16;;;;;;;;;;;5.80;99.90;;;;;;5015593;28;19955;-85
2022/12/30 07:49:41;;;;;;;;;;;5.90;99.90;;;;;;5015253;28;20308;-84
2022/12/30 07:52:07;;;;;;;;;;;5.90;99.90;;;;;;5015048;28;19968;-83
2022/12/30 07:54:33;;;;;;;;;;;5.90;99.90;;;;;;5014547;28;19992;-81
2022/12/30 07:56:59;;;;;;;;;;;5.80;99.90;;;;;;5015163;28;19910;-85
2022/12/30 07:59:24;;;;;;;;;;;5.80;99.90;;;;;;5018125;28;19917;-83
2022/12/30 08:01:50;;;;;;;;;;;5.70;99.90;;;;;;5017341;28;20372;-84
2022/12/30 08:04:16;;;;;;;;;;;5.40;99.90;;;;;;5017713;28;19913;-82
2022/12/30 08:06:42;;;;;;;;;;;5.20;99.90;;;;;;5017997;28;19909;-84
2022/12/30 08:09:07;;;;;;;;;;;5.20;99.90;;;;;;5016674;28;19917;-84
2022/12/30 08:11:33;;;;;;;;;;;5.20;99.90;;;;;;5017479;28;19909;-84
2022/12/30 08:13:59;;;;;;;;;;;5.40;99.90;;;;;;5017117;28;20284;-83
2022/12/30 08:16:24;;;;;;;;;;;5.70;99.90;;;;;;5017239;28;19917;-84
2022/12/30 08:18:50;;;;;;;;;;;5.90;99.90;;;;;;5017456;28;19909;-76
2022/12/30 08:21:17;;;;;;;;;;;6.00;99.90;;;;;;5017503;28;19945;-85
2022/12/30 08:23:44;;;;;;;;;;;6.10;99.90;;;;;;5016463;28;19910;-84
2022/12/30 08:26:11;;;;;;;;;;;6.10;99.90;;;;;;4997839;28;20415;-85
2022/12/30 08:28:37;;;;;;;;;;;6.20;99.90;;;;;;4997646;28;20277;-85
2022/12/30 08:31:07;;;;;;;;;;;6.20;99.90;;;;;;5015051;28;19921;-69
2022/12/30 08:33:32;;;;;;;;;;;6.30;99.90;;;;;;4997497;28;19977;-84
2022/12/30 08:36:05;;;;;;;;;;;6.40;99.90;;;;;;5015046;28;19913;-75
2022/12/30 08:38:32;;;;;;;;;;;6.30;99.90;;;;;;5010831;28;19917;-85
2022/12/30 08:41:18;;;;;;;;;;;6.30;99.90;;;;;;4999054;28;19921;-84
2022/12/30 08:43:44;;;;;;;;;;;6.20;99.90;;;;;;4998673;28;19909;-83
2022/12/30 08:46:09;;;;;;;;;;;6.20;99.90;;;;;;4990755;28;19936;-74
2022/12/30 08:48:35;;;;;;;;;;;6.30;99.90;;;;;;4995832;28;19910;-80
2022/12/30 08:51:01;;;;;;;;;;;6.30;99.90;;;;;;4999074;28;19963;-74
2022/12/30 08:53:26;;;;;;;;;;;6.50;99.90;;;;;;5015066;28;19917;-80
2022/12/30 08:56:03;;;;;;;;;;;6.60;99.90;;;;;;5015137;28;20365;-72
2022/12/30 08:58:29;;;;;;;;;;;6.70;99.90;;;;;;4996700;28;19917;-82
2022/12/30 09:00:54;;;;;;;;;;;6.80;99.90;;;;;;5013898;28;20332;-68
2022/12/30 09:03:20;;;;;;;;;;;6.80;99.90;;;;;;4997584;28;19913;-83
2022/12/30 09:05:49;;;;;;;;;;;6.90;99.90;;;;;;4998344;28;19909;-80
2022/12/30 09:08:14;;;;;;;;;;;7.00;99.90;;;;;;5014494;28;20025;-76
2022/12/30 09:10:40;;;;;;;;;;;7.10;99.90;;;;;;5014067;28;19913;-76
2022/12/30 09:13:06;;;;;;;;;;;7.20;99.90;;;;;;5014001;28;19913;-73
2022/12/30 09:15:31;;;;;;;;;;;7.20;99.90;;;;;;5014217;28;19956;-81
2022/12/30 09:17:57;;;;;;;;;;;7.20;99.90;;;;;;5014334;28;19913;-84
2022/12/30 09:20:22;;;;;;;;;;;7.30;99.90;;;;;;5014230;28;20241;-83
2022/12/30 09:22:48;;;;;;;;;;;7.40;99.90;;;;;;5013861;28;19916;-70
2022/12/30 09:25:13;;;;;;;;;;;7.40;99.90;;;;;;4996119;28;19913;-84
2022/12/30 09:27:39;;;;;;;;;;;7.40;99.90;;;;;;4996785;28;19987;-83
2022/12/30 09:30:05;;;;;;;;;;;7.50;99.90;;;;;;5014072;28;19996;-84
2022/12/30 09:32:31;;;;;;;;;;;7.60;99.90;;;;;;5013805;28;19917;-84
2022/12/30 09:34:56;;;;;;;;;;;7.70;99.90;;;;;;5012470;28;20428;-68
2022/12/30 09:37:22;;;;;;;;;;;7.70;99.90;;;;;;5014196;28;19916;-78
2022/12/30 09:39:47;;;;;;;;;;;7.70;99.90;;;;;;5015816;28;20368;-68
2022/12/30 09:45:18;;;;;;;;;;;7.70;99.90;;;;;;5011602;28;20284;-86
2022/12/30 09:48:04;;;;;;;;;;;7.80;99.90;;;;;;5015322;28;19909;-84
2022/12/30 09:50:42;;;;;;;;;;;7.80;99.90;;;;;;4997094;28;19987;-87
2022/12/30 09:53:08;;;;;;;;;;;8.00;99.90;;;;;;5008384;28;19952;-85
2022/12/30 09:55:37;;;;;;;;;;;8.10;99.90;;;;;;4996117;28;20003;-80
2022/12/30 09:58:05;;;;;;;;;;;8.10;99.90;;;;;;4994438;28;19909;-85
2022/12/30 10:00:33;;;;;;;;;;;8.00;99.90;;;;;;5011965;28;20062;-80
2022/12/30 10:03:04;;;;;;;;;;;8.00;99.90;;;;;;5000768;28;19945;-69
2022/12/30 10:05:45;;;;;;;;;;;8.20;99.90;;;;;;5006359;28;20047;-84
2022/12/30 10:08:25;;;;;;;;;;;8.10;99.90;;;;;;5026639;28;19921;-86
2022/12/30 10:10:58;;;;;;;;;;;8.10;99.90;;;;;;5005362;28;20269;-75
2022/12/30 10:13:40;;;;;;;;;;;8.20;99.90;;;;;;4993203;28;20282;-69
2022/12/30 10:16:13;;;;;;;;;;;8.30;99.90;;;;;;5013408;28;19956;-75
2022/12/30 10:18:51;;;;;;;;;;;8.30;99.90;;;;;;4995836;28;19952;-81
2022/12/30 10:21:23;;;;;;;;;;;8.40;99.90;;;;;;4995190;28;19947;-77
2022/12/30 10:23:58;;;;;;;;;;;8.50;99.90;;;;;;4996033;28;20379;-80
2022/12/30 10:26:28;;;;;;;;;;;8.50;99.90;;;;;;4998953;28;19916;-69
2022/12/30 10:28:59;;;;;;;;;;;8.50;99.90;;;;;;5014571;28;19909;-71
2022/12/30 10:31:27;;;;;;;;;;;8.40;99.90;;;;;;5021592;28;19916;-79
2022/12/30 10:33:54;;;;;;;;;;;8.50;99.90;;;;;;5005424;28;20379;-85
2022/12/30 10:36:33;;;;;;;;;;;8.50;99.90;;;;;;5018472;28;19916;-72
2022/12/30 10:39:12;;;;;;;;;;;8.60;99.90;;;;;;5016847;28;19909;-80
2022/12/30 10:41:54;;;;;;;;;;;8.60;99.90;;;;;;5014305;28;19921;-81
2022/12/30 10:44:30;;;;;;;;;;;8.60;99.90;;;;;;5024275;28;19909;-89
2022/12/30 10:46:56;;;;;;;;;;;8.60;99.90;;;;;;5007066;28;20365;-77
2022/12/30 10:49:30;;;;;;;;;;;8.60;99.90;;;;;;5028103;28;19909;-78
2022/12/30 10:51:57;;;;;;;;;;;8.60;99.90;;;;;;5013593;28;19913;-77
2022/12/30 10:54:22;;;;;;;;;;;8.60;99.90;;;;;;5015219;28;19909;-89
2022/12/30 10:56:49;;;;;;;;;;;8.70;99.90;;;;;;5010686;28;20032;-84
2022/12/30 10:59:17;;;;;;;;;;;8.90;99.90;;;;;;4993206;28;20007;-80
2022/12/30 11:01:45;;;;;;;;;;;9.10;99.90;;;;;;4993332;28;20238;-85
2022/12/30 11:04:29;;;;;;;;;;;8.90;99.90;;;;;;5021902;28;20396;-85
2022/12/30 11:06:59;;;;;;;;;;;8.90;99.90;;;;;;5013798;28;19913;-72
2022/12/30 11:09:24;;;;;;;;;;;8.80;99.90;;;;;;4999548;28;20270;-75
2022/12/30 11:14:42;;;;;;;;;;;9.20;99.90;;;;;;5004572;28;19965;-71
2022/12/30 11:17:14;;;;;;;;;;;9.30;99.90;;;;;;4999183;28;19909;-70
2022/12/30 11:19:40;;;;;;;;;;;9.10;99.90;;;;;;5007428;28;19964;-77
2022/12/30 11:22:06;;;;;;;;;;;9.30;99.90;;;;;;4993092;28;19951;-78
2022/12/30 11:24:32;;;;;;;;;;;9.10;99.90;;;;;;4992860;28;19971;-76
2022/12/30 11:26:57;;;;;;;;;;;9.40;99.90;;;;;;5010724;28;20352;-71
2022/12/30 11:29:25;;;;;;;;;;;9.00;99.90;;;;;;5007917;28;19997;-71
2022/12/30 11:31:51;;;;;;;;;;;9.10;99.90;;;;;;4997596;28;20390;-78
2022/12/30 11:34:33;;;;;;;;;;;9.20;99.90;;;;;;4997532;28;19913;-73
2022/12/30 11:37:00;;;;;;;;;;;9.20;99.90;;;;;;5014847;28;19909;-79
2022/12/30 11:39:25;;;;;;;;;;;9.10;99.90;;;;;;4993353;28;19957;-78
2022/12/30 11:41:52;;;;;;;;;;;9.10;99.90;;;;;;4997101;28;19948;-76
2022/12/30 11:44:23;;;;;;;;;;;9.20;99.90;;;;;;5014621;28;19913;-74
2022/12/30 11:46:51;;;;;;;;;;;9.50;99.90;;;;;;4997917;28;19951;-83
2022/12/30 11:49:26;;;;;;;;;;;9.40;99.90;;;;;;5014543;28;19909;-78
2022/12/30 11:51:53;;;;;;;;;;;9.60;99.90;;;;;;4997923;28;19909;-82
2022/12/30 11:54:23;;;;;;;;;;;9.90;99.90;;;;;;5014322;28;19985;-72
2022/12/30 11:56:53;;;;;;;;;;;9.70;99.90;;;;;;5000157;28;19995;-80
2022/12/30 11:59:21;;;;;;;;;;;9.50;99.90;;;;;;4997539;28;20067;-77
2022/12/30 12:01:50;;;;;;;;;;;9.60;99.90;;;;;;4995686;28;19913;-82
2022/12/30 12:04:33;;;;;;;;;;;9.70;99.90;;;;;;5017988;28;19909;-73
2022/12/30 12:06:59;;;;;;;;;;;9.70;99.90;;;;;;5017315;28;19910;-79
2022/12/30 12:09:44;;;;;;;;;;;9.70;99.90;;;;;;5012902;28;20380;-74
2022/12/30 12:12:12;;;;;;;;;;;9.70;99.90;;;;;;4968428;28;19909;-82
2022/12/30 12:14:51;;;;;;;;;;;9.80;99.90;;;;;;5008689;28;19917;-77
2022/12/30 12:17:35;;;;;;;;;;;9.70;99.90;;;;;;4992676;28;19910;-80
2022/12/30 12:20:03;;;;;;;;;;;9.80;99.90;;;;;;4996495;28;20330;-74
2022/12/30 12:22:41;;;;;;;;;;;9.80;99.90;;;;;;5020711;28;20360;-79
2022/12/30 12:25:14;;;;;;;;;;;9.70;99.90;;;;;;5035360;28;19913;-72
2022/12/30 12:27:39;;;;;;;;;;;9.70;99.90;;;;;;5005093;28;20277;-80
2022/12/30 12:30:10;;;;;;;;;;;9.80;99.90;;;;;;4999380;28;19917;-71
2022/12/30 12:32:42;;;;;;;;;;;9.80;99.90;;;;;;4993770;28;19972;-73
2022/12/30 12:35:14;;;;;;;;;;;9.90;99.90;;;;;;5009014;28;19918;-76
2022/12/30 12:37:49;;;;;;;;;;;9.90;99.90;;;;;;5007622;28;19909;-77
2022/12/30 12:40:30;;;;;;;;;;;9.80;99.90;;;;;;5016264;28;19980;-73
2022/12/30 12:43:05;;;;;;;;;;;10.00;99.90;;;;;;5014138;28;19910;-74
2022/12/30 12:45:57;;;;;;;;;;;10.00;99.90;;;;;;5015158;28;19909;-79
2022/12/30 12:48:22;;;;;;;;;;;;;;;;;;4991416;28;19956;-74
2022/12/30 12:50:49;;;;;;;;;;;;;;;;;;5014739;28;19916;-79
2022/12/30 12:53:14;;;;;;;;;;;;;;;;;;5013187;28;20247;-78
2022/12/30 12:55:58;;;;;;;;;;;10.30;99.90;;;;;;5014211;28;19909;-79
2022/12/30 12:58:43;;;;;;;;;;;10.20;99.90;;;;;;5014410;28;19909;-69
2022/12/30 13:01:27;;;;;;;;;;;10.20;99.90;;;;;;5014419;28;19917;-73
2022/12/30 13:03:57;;;;;;;;;;;10.10;99.90;;;;;;5016414;28;19909;-79
2022/12/30 13:06:41;;;;;;;;;;;10.20;99.90;;;;;;4995899;28;19910;-88
2022/12/30 13:09:36;;;;;;;;;;;10.30;99.90;;;;;;4996041;28;19913;-78
2022/12/30 13:12:20;;;;;;;;;;;10.30;99.90;;;;;;4956951;28;19911;-71
2022/12/30 13:14:57;;;;;;;;;;;10.30;99.90;;;;;;4996947;28;19917;-78
2022/12/30 13:17:35;;;;;;;;;;;10.30;99.90;;;;;;4994537;28;20304;-76
2022/12/30 13:20:05;;;;;;;;;;;10.30;99.90;;;;;;5011765;28;20426;-81
2022/12/30 13:22:37;;;;;;;;;;;10.40;99.90;;;;;;5014055;28;19916;-84
2022/12/30 13:25:11;;;;;;;;;;;10.40;99.90;;;;;;4998826;28;19909;-87
2022/12/30 13:27:38;;;;;;;;;;;10.50;99.90;;;;;;5013475;28;20003;-86
2022/12/30 13:30:05;;;;;;;;;;;10.40;99.90;;;;;;4999427;28;19941;-84
2022/12/30 13:32:43;;;;;;;;;;;10.40;99.90;;;;;;5030022;28;19916;-86
2022/12/30 13:35:30;;;;;;;;;;;10.40;99.90;;;;;;5014526;28;19916;-85
2022/12/30 13:37:55;;;;;;;;;;;10.30;99.90;;;;;;5015907;28;19910;-86
2022/12/30 13:40:21;;;;;;;;;;;;;;;;;;5014345;28;20020;-73
2022/12/30 13:42:54;;;;;;;;;;;10.70;99.90;;;;;;5014037;28;20328;-82
2022/12/30 13:45:32;;;;;;;;;;;10.80;99.90;;;;;;5013877;28;19910;-83
2022/12/30 13:48:05;;;;;;;;;;;10.60;99.90;;;;;;5014135;28;19915;-83
2022/12/30 13:50:33;;;;;;;;;;;10.60;99.90;;;;;;5021239;28;19909;-84
2022/12/30 13:53:00;;;;;;;;;;;10.90;99.90;;;;;;5018028;28;20162;-83
2022/12/30 13:55:36;;;;;;;;;;;10.20;99.90;;;;;;5012261;28;19936;-83
2022/12/30 13:58:01;;;;;;;;;;;10.20;99.90;;;;;;4997183;28;20268;-82
2022/12/30 14:00:27;;;;;;;;;;;10.10;99.90;;;;;;5027354;28;19943;-81
2022/12/30 14:03:22;;;;;;;;;;;10.00;99.90;;;;;;5015711;28;19917;-81
2022/12/30 14:05:48;;;;;;;;;;;10.00;99.90;;;;;;5006508;28;19913;-83
2022/12/30 14:08:20;;;;;;;;;;;10.00;99.90;;;;;;4993357;28;19917;-84
2022/12/30 14:10:46;;;;;;;;;;;9.90;99.90;;;;;;5013226;28;20411;-83
2022/12/30 14:13:13;;;;;;;;;;;9.80;99.90;;;;;;5011342;28;19914;-84
2022/12/30 14:16:11;;;;;;;;;;;9.80;99.90;;;;;;5069199;28;20246;-82
2022/12/30 14:18:37;;;;;;;;;;;9.80;99.90;;;;;;5069499;28;20011;-84
2022/12/30 14:21:08;;;;;;;;;;;9.80;99.90;;;;;;5067654;28;20354;-84
2022/12/30 14:23:42;;;;;;;;;;;9.80;99.90;;;;;;5068421;28;19920;-85
2022/12/30 14:26:19;;;;;;;;;;;9.80;99.90;;;;;;5068179;28;19920;-85
2022/12/30 14:28:45;;;;;;;;;;;9.80;99.90;;;;;;5066428;28;19959;-84
2022/12/30 14:31:37;;;;;;;;;;;9.80;99.90;;;;;;5067879;28;20002;-87
2022/12/30 14:34:05;;;;;;;;;;;9.80;99.90;;;;;;5066534;28;19921;-85
2022/12/30 14:36:31;;;;;;;;;;;9.80;99.90;;;;;;5069185;28;19920;-80
2022/12/30 14:39:02;;;;;;;;;;;9.80;99.90;;;;;;5066529;28;19913;-85
2022/12/30 14:41:37;;;;;;;;;;;9.80;99.90;;;;;;5068717;28;19919;-85
2022/12/30 14:44:17;;;;;;;;;;;9.80;99.90;;;;;;5067527;28;19916;-83
2022/12/30 14:46:45;;;;;;;;;;;9.80;99.90;;;;;;5065884;28;20428;-86
2022/12/30 14:49:12;;;;;;;;;;;9.70;99.90;;;;;;5067903;28;19919;-86
2022/12/30 14:51:41;;;;;;;;;;;9.80;99.90;;;;;;5067929;28;19940;-86
2022/12/30 14:54:11;;;;;;;;;;;9.70;99.90;;;;;;5067484;28;20364;-85
2022/12/30 14:56:37;;;;;;;;;;;9.80;99.90;;;;;;5067300;28;19912;-86
2022/12/30 14:59:05;;;;;;;;;;;9.80;99.90;;;;;;5068883;28;19920;-86
2022/12/30 15:01:31;;;;;;;;;;;9.80;99.90;;;;;;5069176;28;19916;-85
2022/12/30 15:04:09;;;;;;;;;;;9.80;99.90;;;;;;5066915;28;19959;-85
2022/12/30 15:06:38;;;;;;;;;;;9.80;99.90;;;;;;5066834;28;19924;-82
2022/12/30 15:09:08;;;;;;;;;;;9.80;99.90;;;;;;5072667;28;19920;-86
2022/12/30 15:11:35;;;;;;;;;;;9.90;99.90;;;;;;5068906;28;19959;-85
2022/12/30 15:14:01;;;;;;;;;;;9.80;99.90;;;;;;5068501;28;20365;-85
2022/12/30 15:16:28;;;;;;;;;;;9.80;99.90;;;;;;5088611;28;19966;-83
2022/12/30 15:18:55;;;;;;;;;;;9.80;99.90;;;;;;5068427;28;19964;-73
2022/12/30 15:21:29;;;;;;;;;;;9.80;99.90;;;;;;5086588;28;19973;-85
2022/12/30 15:23:57;;;;;;;;;;;9.80;99.90;;;;;;5087477;28;19916;-85
2022/12/30 15:26:23;;;;;;;;;;;9.80;99.90;;;;;;5060157;28;20310;-86
2022/12/30 15:28:50;;;;;;;;;;;9.90;99.90;;;;;;5056580;28;19912;-86
2022/12/30 15:31:20;;;;;;;;;;;9.90;99.90;;;;;;5074378;28;21397;-85
2022/12/30 15:33:53;;;;;;;;;;;9.90;99.90;;;;;;5055591;28;19919;-84
2022/12/30 15:36:20;;;;;;;;;;;9.90;99.90;;;;;;5074405;28;19916;-84
2022/12/30 15:38:46;;;;;;;;;;;9.90;99.90;;;;;;5056737;28;19916;-85